Sumise Maru No.22 — JD3589 — position and weather

sailwx.info

Track history (hours):
 
Tides and Currents Weather Stations Pressure Air Temp Water Temp Dewpoint Dewpoint Depression Visibility Wind Speed Wind Dir Waves Ship Positions

Sumise Maru No.22

Last reported at 2017-Nov-18 03:00 UTC. Time now 2017-Nov-18 03:03 UTC.
Position N 34°14' E 135°08'.

Length 116 m; draft 6.8 m.

Type: Cargo ship. MMSI: 431005246.

Date/timePositionNaut miles runAvg speedWind from/ knotsBaromVisibWave heightAir tempDewpointWater temp
2017-Nov-18 03:00N 34°14' E 135°08'0 0.0
2017-Nov-18 02:27N 34°14' E 135°08'0 0.0
2017-Nov-18 01:59N 34°14' E 135°08'0 0.0
2017-Nov-18 01:29N 34°14' E 135°08'0 0.0
2017-Nov-18 01:00N 34°14' E 135°08'0 0.0
2017-Nov-18 00:30N 34°14' E 135°08'0 0.0
2017-Nov-17 23:57N 34°14' E 135°08'0 0.0
2017-Nov-17 23:30N 34°14' E 135°08'0 0.0
2017-Nov-17 23:00N 34°14' E 135°08'0 0.0
2017-Nov-17 22:29N 34°14' E 135°08'1 1.8
2017-Nov-17 22:00N 34°14' E 135°07'4 8.1
2017-Nov-17 21:30N 34°11' E 135°03'813.7
2017-Nov-17 20:56N 34°04' E 135°01'  
2017-Nov-14 07:00N 34°03' E 134°59'713.5
2017-Nov-14 06:30N 34°09' E 134°59'1813.4
2017-Nov-14 05:11N 34°27' E 135°01'513.2
2017-Nov-14 04:48N 34°32' E 135°02'413.2
2017-Nov-14 04:30N 34°36' E 135°03'713.5
2017-Nov-14 04:00N 34°37' E 134°55'13 0.3
2017-Nov-12 12:25N 34°41' E 134°40'812.8
2017-Nov-12 11:47N 34°39' E 134°49'412.0
2017-Nov-12 11:29N 34°38' E 134°53'612.6
2017-Nov-12 11:00N 34°38' E 135°01'611.1
2017-Nov-12 10:30N 34°33' E 135°05'713.3
2017-Nov-12 10:00N 34°27' E 135°03'1113.2
2017-Nov-12 09:11N 34°16' E 134°59'213.7
2017-Nov-12 09:00N 34°14' E 134°59'813.1
2017-Nov-12 08:24N 34°06' E 134°59'23110.2
2017-Nov-11 09:53N 34°59' E 139°31'514.3
2017-Nov-11 09:30N 35°02' E 139°37'714.2
2017-Nov-11 09:01N 35°06' E 139°44'713.9
2017-Nov-11 08:30N 35°13' E 139°46'612.3
2017-Nov-11 08:00N 35°19' E 139°43'612.2
2017-Nov-11 07:30N 35°25' E 139°42'1 2.5
2017-Nov-11 06:58N 35°26' E 139°41'0 0.0
2017-Nov-11 06:28N 35°26' E 139°41'0 0.0
2017-Nov-11 05:58N 35°26' E 139°41'0 0.0
2017-Nov-11 05:28N 35°26' E 139°41'0 0.0
2017-Nov-11 04:52N 35°26' E 139°41'0 0.0
2017-Nov-11 04:28N 35°26' E 139°41'0 0.0
2017-Nov-11 03:58N 35°26' E 139°41'0 0.1
2017-Nov-11 03:28N 35°26' E 139°41'0 0.0
2017-Nov-11 02:58N 35°26' E 139°41'0 0.0
2017-Nov-11 02:13N 35°26' E 139°41'0 0.0
2017-Nov-11 01:58N 35°26' E 139°41'0 0.0
2017-Nov-11 01:22N 35°26' E 139°41'0 0.0
2017-Nov-11 00:46N 35°26' E 139°41'0 0.0
2017-Nov-11 00:19N 35°26' E 139°41'0 0.0
2017-Nov-10 23:54N 35°26' E 139°41'0 0.9
2017-Nov-10 23:30N 35°25' E 139°41'0 1.0
2017-Nov-10 23:00N 35°26' E 139°42'0 0.1
2017-Nov-10 22:30N 35°26' E 139°42'0 0.0
2017-Nov-10 22:00N 35°26' E 139°42'0 0.0
2017-Nov-10 21:30N 35°26' E 139°42'0 0.0
2017-Nov-10 21:00N 35°26' E 139°42'0 0.0
2017-Nov-10 20:31N 35°26' E 139°42'0 0.0
2017-Nov-10 20:00N 35°26' E 139°42'0 0.0
2017-Nov-10 19:30N 35°26' E 139°42'0 0.1
2017-Nov-10 18:58N 35°26' E 139°42'0 0.0
2017-Nov-10 18:30N 35°26' E 139°42'0 0.1
2017-Nov-10 18:00N 35°26' E 139°42'0 0.0
2017-Nov-10 17:29N 35°26' E 139°42'0 0.0
2017-Nov-10 16:59N 35°26' E 139°42'0 0.0
2017-Nov-10 16:27N 35°26' E 139°42'0 0.0
2017-Nov-10 15:58N 35°26' E 139°42'0 0.0
2017-Nov-10 15:28N 35°26' E 139°42'0 0.1
2017-Nov-10 14:58N 35°26' E 139°42'0 0.0
2017-Nov-10 14:28N 35°26' E 139°42'0 0.0
2017-Nov-10 13:58N 35°26' E 139°42'0 0.0
2017-Nov-10 13:28N 35°26' E 139°42'0 0.0
2017-Nov-10 12:58N 35°26' E 139°42'0 0.0
2017-Nov-10 12:28N 35°26' E 139°42'0 0.0
2017-Nov-10 11:58N 35°26' E 139°42'0 0.0
2017-Nov-10 11:28N 35°26' E 139°42'0 0.2
2017-Nov-10 10:58N 35°25' E 139°42'0 0.1
2017-Nov-10 10:19N 35°25' E 139°42'0 0.3
2017-Nov-10 09:55N 35°25' E 139°42'1 2.1
2017-Nov-10 09:30N 35°26' E 139°43'611.4
2017-Nov-10 09:01N 35°28' E 139°49'5 0.6
2017-Nov-10 00:34N 35°31' E 139°55'212.4
2017-Nov-10 00:23N 35°29' E 139°52'512.4
2017-Nov-10 00:00N 35°26' E 139°48'612.4
2017-Nov-09 23:30N 35°21' E 139°45'611.7
2017-Nov-09 23:00N 35°15' E 139°47'24310.6
2017-Nov-08 23:58N 34°08' E 135°02'613.4
2017-Nov-08 23:30N 34°14' E 135°05'2 4.4
2017-Nov-08 23:00N 34°14' E 135°08'0 0.0
2017-Nov-08 22:26N 34°14' E 135°08'0 0.1
2017-Nov-08 21:56N 34°14' E 135°08'0 0.1
2017-Nov-08 21:26N 34°14' E 135°08'0 0.1
2017-Nov-08 20:56N 34°14' E 135°08'0 0.0
2017-Nov-08 20:29N 34°14' E 135°08'0 0.0
2017-Nov-08 19:56N 34°14' E 135°08'0 0.0
2017-Nov-08 19:26N 34°14' E 135°08'0 0.0
2017-Nov-08 18:56N 34°14' E 135°08'0 0.0
2017-Nov-08 18:26N 34°14' E 135°08'0 0.0
2017-Nov-08 17:56N 34°14' E 135°08'0 0.1
2017-Nov-08 17:29N 34°14' E 135°08'0 0.0
2017-Nov-08 16:59N 34°14' E 135°08'0 0.1
2017-Nov-08 16:29N 34°14' E 135°08'0 0.3
2017-Nov-08 16:00N 34°14' E 135°08'4 8.6
2017-Nov-08 15:30N 34°15' E 135°03'810.1
2017-Nov-08 14:42N 34°23' E 135°00'211.5
2017-Nov-08 14:30N 34°25' E 135°01'612.4
2017-Nov-08 13:59N 34°31' E 135°02'510.6
2017-Nov-08 13:30N 34°37' E 135°02'511.0
2017-Nov-08 13:00N 34°36' E 134°55'  
Track history (hours):
 
Tides and Currents Weather Stations Pressure Air Temp Water Temp Dewpoint Dewpoint Depression Visibility Wind Speed Wind Dir Waves Ship Positions

Sumise Maru No.22

Last reported at 2017-Nov-18 03:00 UTC. Time now 2017-Nov-18 03:03 UTC.
Position N 34°14' E 135°08'.

Length 116 m; draft 6.8 m.

Type: Cargo ship. MMSI: 431005246.

Date/timePositionNaut miles runAvg speedWind from/ knotsBaromVisibWave heightAir tempDewpointWater temp
2017-Nov-18 03:00N 34°14' E 135°08'0 0.0
2017-Nov-18 02:27N 34°14' E 135°08'0 0.0
2017-Nov-18 01:59N 34°14' E 135°08'0 0.0
2017-Nov-18 01:29N 34°14' E 135°08'0 0.0
2017-Nov-18 01:00N 34°14' E 135°08'0 0.0
2017-Nov-18 00:30N 34°14' E 135°08'0 0.0
2017-Nov-17 23:57N 34°14' E 135°08'0 0.0
2017-Nov-17 23:30N 34°14' E 135°08'0 0.0
2017-Nov-17 23:00N 34°14' E 135°08'0 0.0
2017-Nov-17 22:29N 34°14' E 135°08'1 1.8
2017-Nov-17 22:00N 34°14' E 135°07'4 8.1
2017-Nov-17 21:30N 34°11' E 135°03'813.7
2017-Nov-17 20:56N 34°04' E 135°01'  
2017-Nov-14 07:00N 34°03' E 134°59'713.5
2017-Nov-14 06:30N 34°09' E 134°59'1813.4
2017-Nov-14 05:11N 34°27' E 135°01'513.2
2017-Nov-14 04:48N 34°32' E 135°02'413.2
2017-Nov-14 04:30N 34°36' E 135°03'713.5
2017-Nov-14 04:00N 34°37' E 134°55'13 0.3
2017-Nov-12 12:25N 34°41' E 134°40'812.8
2017-Nov-12 11:47N 34°39' E 134°49'412.0
2017-Nov-12 11:29N 34°38' E 134°53'612.6
2017-Nov-12 11:00N 34°38' E 135°01'611.1
2017-Nov-12 10:30N 34°33' E 135°05'713.3
2017-Nov-12 10:00N 34°27' E 135°03'1113.2
2017-Nov-12 09:11N 34°16' E 134°59'213.7
2017-Nov-12 09:00N 34°14' E 134°59'813.1
2017-Nov-12 08:24N 34°06' E 134°59'23110.2
2017-Nov-11 09:53N 34°59' E 139°31'514.3
2017-Nov-11 09:30N 35°02' E 139°37'714.2
2017-Nov-11 09:01N 35°06' E 139°44'713.9
2017-Nov-11 08:30N 35°13' E 139°46'612.3
2017-Nov-11 08:00N 35°19' E 139°43'612.2
2017-Nov-11 07:30N 35°25' E 139°42'1 2.5
2017-Nov-11 06:58N 35°26' E 139°41'0 0.0
2017-Nov-11 06:28N 35°26' E 139°41'0 0.0
2017-Nov-11 05:58N 35°26' E 139°41'0 0.0
2017-Nov-11 05:28N 35°26' E 139°41'0 0.0
2017-Nov-11 04:52N 35°26' E 139°41'0 0.0
2017-Nov-11 04:28N 35°26' E 139°41'0 0.0
2017-Nov-11 03:58N 35°26' E 139°41'0 0.1
2017-Nov-11 03:28N 35°26' E 139°41'0 0.0
2017-Nov-11 02:58N 35°26' E 139°41'0 0.0
2017-Nov-11 02:13N 35°26' E 139°41'0 0.0
2017-Nov-11 01:58N 35°26' E 139°41'0 0.0
2017-Nov-11 01:22N 35°26' E 139°41'0 0.0
2017-Nov-11 00:46N 35°26' E 139°41'0 0.0
2017-Nov-11 00:19N 35°26' E 139°41'0 0.0
2017-Nov-10 23:54N 35°26' E 139°41'0 0.9
2017-Nov-10 23:30N 35°25' E 139°41'0 1.0
2017-Nov-10 23:00N 35°26' E 139°42'0 0.1
2017-Nov-10 22:30N 35°26' E 139°42'0 0.0
2017-Nov-10 22:00N 35°26' E 139°42'0 0.0
2017-Nov-10 21:30N 35°26' E 139°42'0 0.0
2017-Nov-10 21:00N 35°26' E 139°42'0 0.0
2017-Nov-10 20:31N 35°26' E 139°42'0 0.0
2017-Nov-10 20:00N 35°26' E 139°42'0 0.0
2017-Nov-10 19:30N 35°26' E 139°42'0 0.1
2017-Nov-10 18:58N 35°26' E 139°42'0 0.0
2017-Nov-10 18:30N 35°26' E 139°42'0 0.1
2017-Nov-10 18:00N 35°26' E 139°42'0 0.0
2017-Nov-10 17:29N 35°26' E 139°42'0 0.0
2017-Nov-10 16:59N 35°26' E 139°42'0 0.0
2017-Nov-10 16:27N 35°26' E 139°42'0 0.0
2017-Nov-10 15:58N 35°26' E 139°42'0 0.0
2017-Nov-10 15:28N 35°26' E 139°42'0 0.1
2017-Nov-10 14:58N 35°26' E 139°42'0 0.0
2017-Nov-10 14:28N 35°26' E 139°42'0 0.0
2017-Nov-10 13:58N 35°26' E 139°42'0 0.0
2017-Nov-10 13:28N 35°26' E 139°42'0 0.0
2017-Nov-10 12:58N 35°26' E 139°42'0 0.0
2017-Nov-10 12:28N 35°26' E 139°42'0 0.0
2017-Nov-10 11:58N 35°26' E 139°42'0 0.0
2017-Nov-10 11:28N 35°26' E 139°42'0 0.2
2017-Nov-10 10:58N 35°25' E 139°42'0 0.1
2017-Nov-10 10:19N 35°25' E 139°42'0 0.3
2017-Nov-10 09:55N 35°25' E 139°42'1 2.1
2017-Nov-10 09:30N 35°26' E 139°43'611.4
2017-Nov-10 09:01N 35°28' E 139°49'5 0.6
2017-Nov-10 00:34N 35°31' E 139°55'212.4
2017-Nov-10 00:23N 35°29' E 139°52'512.4
2017-Nov-10 00:00N 35°26' E 139°48'612.4
2017-Nov-09 23:30N 35°21' E 139°45'611.7
2017-Nov-09 23:00N 35°15' E 139°47'24310.6
2017-Nov-08 23:58N 34°08' E 135°02'613.4
2017-Nov-08 23:30N 34°14' E 135°05'2 4.4
2017-Nov-08 23:00N 34°14' E 135°08'0 0.0
2017-Nov-08 22:26N 34°14' E 135°08'0 0.1
2017-Nov-08 21:56N 34°14' E 135°08'0 0.1
2017-Nov-08 21:26N 34°14' E 135°08'0 0.1
2017-Nov-08 20:56N 34°14' E 135°08'0 0.0
2017-Nov-08 20:29N 34°14' E 135°08'0 0.0
2017-Nov-08 19:56N 34°14' E 135°08'0 0.0
2017-Nov-08 19:26N 34°14' E 135°08'0 0.0
2017-Nov-08 18:56N 34°14' E 135°08'0 0.0
2017-Nov-08 18:26N 34°14' E 135°08'0 0.0
2017-Nov-08 17:56N 34°14' E 135°08'0 0.1
2017-Nov-08 17:29N 34°14' E 135°08'0 0.0
2017-Nov-08 16:59N 34°14' E 135°08'0 0.1
2017-Nov-08 16:29N 34°14' E 135°08'0 0.3
2017-Nov-08 16:00N 34°14' E 135°08'4 8.6
2017-Nov-08 15:30N 34°15' E 135°03'810.1
2017-Nov-08 14:42N 34°23' E 135°00'211.5
2017-Nov-08 14:30N 34°25' E 135°01'612.4
2017-Nov-08 13:59N 34°31' E 135°02'510.6
2017-Nov-08 13:30N 34°37' E 135°02'511.0
2017-Nov-08 13:00N 34°36' E 134°55'  

Dump ship's entire track history